Pinyon Pines, California
Current Conditions -  °F | °C
As of 3:53 AM on Thursday 29 Jan 2015 (Local Time) from KPSP Reporting Station
Clear Clear  
Wind Chill: 65°   Ceiling: Unl
Heat Index: 65°   Visibility: 10mi
Dew Point: 41°   Wind: 6mph
Humidity: 42%   Direction: 270°W
Pressure: 30.08"   Gusts: NA
Location:  33.6134°N, 116.54°W
Report Text: KPSP 291153Z AUTO 27005KT 10SM CLR 18/05 A3008 RMK AO2 SLP185 T01830050 10194 20161 58012 TSNO
Loading
Personal Weather Stations






























Interactive Weather Map New forecast layout! Learn more

10-Day Weather Forecast

Advertisements
Track Severe Weather on mobile